Costa Luminosa — ICGU — position and weather

sailwx.info

Track history (hours):
 
Tides and Currents Weather Stations Pressure Air Temp Water Temp Dewpoint Dewpoint Depression Visibility Wind Speed Wind Dir Waves Ship Positions

Costa Luminosa

Last reported at 2016-Apr-30 04:33 UTC. Time now 2016-Apr-30 05:13 UTC.
Position N 49°29' E 000°05'.

Length 291 m; draft 8.1 m.

Type: Passenger vessel. MMSI: 247257900.

Date/timePositionNaut miles runAvg speedWind from/ knotsBaromVisibWave heightAir tempDewpointWater temp
2016-Apr-30 04:33N 49°29' E 000°05'1010.3
2016-Apr-30 03:33N 49°32' W 000°11'1515.4
2016-Apr-30 02:33N 49°41' W 000°30'1716.8
2016-Apr-30 01:33N 49°50' W 000°52'7218.0
2016-Apr-29 21:33N 49°53' W 002°44'1818.3
2016-Apr-29 20:33N 49°44' W 003°09'7518.3
2016-Apr-29 16:28N 48°58' W 004°39'1718.6
2016-Apr-29 15:33N 48°47' W 004°59'1818.0
2016-Apr-29 14:33N 48°34' W 005°19'59314.0
2016-Apr-27 20:10N 39°13' W 009°47'1219.3
2016-Apr-27 19:33N 39°02' W 009°45'1919.1
2016-Apr-27 18:33N 38°43' W 009°42'1615.7
2016-Apr-27 17:33N 38°37' W 009°23'1212.1
2016-Apr-27 16:33N 38°42' W 009°09'2 1.5
2016-Apr-27 15:29N 38°43' W 009°07'0 0.0
2016-Apr-27 14:29N 38°43' W 009°07'0 0.0
2016-Apr-27 13:32N 38°43' W 009°07'0 0.0
2016-Apr-27 12:32N 38°43' W 009°07'0 0.0
2016-Apr-27 11:32N 38°43' W 009°07'0 0.0
2016-Apr-27 10:29N 38°43' W 009°07'0 0.0
2016-Apr-27 09:29N 38°43' W 009°07'0 0.0
2016-Apr-27 08:32N 38°43' W 009°07'0 0.0
2016-Apr-27 07:32N 38°43' W 009°07'0 0.0
2016-Apr-27 06:31N 38°43' W 009°07'7 7.4
2016-Apr-27 05:33N 38°41' W 009°16'1616.3
2016-Apr-27 04:33N 38°26' W 009°24'2020.1
2016-Apr-27 03:33N 38°06' W 009°23'2020.1
2016-Apr-27 02:33N 37°45' W 009°23'2020.2
2016-Apr-27 01:33N 37°25' W 009°22'2020.2
2016-Apr-27 00:33N 37°05' W 009°21'2020.3
2016-Apr-26 23:33N 36°46' W 009°11'2020.4
2016-Apr-26 22:33N 36°39' W 008°48'1918.8
2016-Apr-26 21:33N 36°33' W 008°26'1919.1
2016-Apr-26 20:33N 36°26' W 008°03'2019.6
2016-Apr-26 19:33N 36°21' W 007°40'2019.7
2016-Apr-26 18:32N 36°14' W 007°16'8220.0
2016-Apr-26 14:27N 35°58' W 005°37'1719.4
2016-Apr-26 13:33N 36°02' W 005°17'22620.2
2016-Apr-26 02:23N 37°21' W 000°52'1821.1
2016-Apr-26 01:33N 37°33' W 000°36'2020.3
2016-Apr-26 00:33N 37°49' W 000°21'2120.3
2016-Apr-25 23:32N 38°06' W 000°06'2020.4
2016-Apr-25 22:33N 38°23' E 000°08'10320.5
2016-Apr-25 17:33N 39°53' E 001°12'2120.9
2016-Apr-25 16:33N 40°11' E 001°25'2120.9
2016-Apr-25 15:33N 40°30' E 001°38'2120.6
2016-Apr-25 14:33N 40°48' E 001°50'2020.3
2016-Apr-25 13:33N 41°06' E 002°01'153 8.4
2016-Apr-24 19:14N 43°04' E 004°13'3319.3
2016-Apr-24 17:30N 43°03' E 004°59'4314.6
2016-Apr-24 14:33N 43°05' E 005°58'3 2.9
2016-Apr-24 13:31N 43°06' E 005°54'0 0.0
2016-Apr-24 12:31N 43°06' E 005°54'0 0.0
2016-Apr-24 11:31N 43°06' E 005°54'0 0.0
2016-Apr-24 10:31N 43°06' E 005°54'0 0.0
2016-Apr-24 09:31N 43°06' E 005°54'0 0.0
2016-Apr-24 08:31N 43°06' E 005°54'0 0.0
2016-Apr-24 07:31N 43°06' E 005°54'0 0.0
2016-Apr-24 06:31N 43°06' E 005°54'0 0.0
2016-Apr-24 05:31N 43°06' E 005°54'0 0.0
2016-Apr-24 04:29N 43°06' E 005°54'2 1.9
2016-Apr-24 03:34N 43°05' E 005°56'5210.4
2016-Apr-23 22:33N 43°18' E 007°05'1615.9
2016-Apr-23 21:33N 43°28' E 007°22'1616.2
2016-Apr-23 20:33N 43°38' E 007°40'1916.2
2016-Apr-23 19:22N 43°48' E 008°03'3016.4
2016-Apr-23 17:33N 44°11' E 008°29'8 7.8
2016-Apr-23 16:32N 44°19' E 008°31'1 1.1
2016-Apr-23 15:33N 44°19' E 008°29'0 0.0
2016-Apr-23 14:29N 44°19' E 008°29'0 0.0
2016-Apr-23 13:29N 44°19' E 008°29'0 0.0
2016-Apr-23 12:29N 44°19' E 008°29'0 0.0
2016-Apr-23 11:32N 44°19' E 008°29'0 0.0
2016-Apr-23 10:29N 44°19' E 008°29'0 0.0
2016-Apr-23 09:32N 44°19' E 008°29'0 0.0
2016-Apr-23 08:29N 44°19' E 008°29'0 0.0
2016-Apr-23 07:29N 44°19' E 008°29'0 0.0
2016-Apr-23 06:32N 44°19' E 008°29'0 0.0
2016-Apr-23 05:33N 44°19' E 008°29'8 7.6
2016-Apr-23 04:32N 44°13' E 008°37'1818.1
2016-Apr-23 03:33N 43°57' E 008°49'1818.1
2016-Apr-23 02:33N 43°42' E 009°02'1918.5
2016-Apr-23 01:33N 43°26' E 009°14'1918.8
2016-Apr-23 00:33N 43°10' E 009°28'2318.1
2016-Apr-22 23:16N 42°51' E 009°47'1918.4
2016-Apr-22 22:14N 42°40' E 010°09'1318.5
2016-Apr-22 21:31N 42°31' E 010°22'99 5.7
2016-Apr-22 04:14N 41°33' E 012°09'1719.0
2016-Apr-22 03:21N 41°20' E 012°22'1619.9
2016-Apr-22 02:32N 41°06' E 012°34'2320.4
2016-Apr-22 01:25N 40°48' E 012°52'1820.5
2016-Apr-22 00:33N 40°34' E 013°07'2720.3
2016-Apr-21 23:14N 40°14' E 013°30'1420.4
2016-Apr-21 22:33N 40°03' E 013°42'2620.5
2016-Apr-21 21:16N 39°43' E 014°04'7620.3
2016-Apr-21 17:32N 38°46' E 015°07'2020.0
2016-Apr-21 16:33N 38°32' E 015°25'1919.4
2016-Apr-21 15:34N 38°18' E 015°43'1818.4
2016-Apr-21 14:33N 38°01' E 015°34'2019.9
2016-Apr-21 13:34N 37°43' E 015°22'1918.7
2016-Apr-21 12:33N 37°28' E 015°09'12 1.2
2016-Apr-21 02:31N 37°25' E 015°24'1210.0
2016-Apr-21 01:22N 37°23' E 015°38'8 9.8
2016-Apr-21 00:33N 37°21' E 015°48'1110.4
2016-Apr-20 23:31N 37°19' E 016°01'2712.8
2016-Apr-20 21:23N 37°13' E 016°35'  
Track history (hours):
 
Tides and Currents Weather Stations Pressure Air Temp Water Temp Dewpoint Dewpoint Depression Visibility Wind Speed Wind Dir Waves Ship Positions

Costa Luminosa

Last reported at 2016-Apr-30 04:33 UTC. Time now 2016-Apr-30 05:13 UTC.
Position N 49°29' E 000°05'.

Length 291 m; draft 8.1 m.

Type: Passenger vessel. MMSI: 247257900.

Date/timePositionNaut miles runAvg speedWind from/ knotsBaromVisibWave heightAir tempDewpointWater temp
2016-Apr-30 04:33N 49°29' E 000°05'1010.3
2016-Apr-30 03:33N 49°32' W 000°11'1515.4
2016-Apr-30 02:33N 49°41' W 000°30'1716.8
2016-Apr-30 01:33N 49°50' W 000°52'7218.0
2016-Apr-29 21:33N 49°53' W 002°44'1818.3
2016-Apr-29 20:33N 49°44' W 003°09'7518.3
2016-Apr-29 16:28N 48°58' W 004°39'1718.6
2016-Apr-29 15:33N 48°47' W 004°59'1818.0
2016-Apr-29 14:33N 48°34' W 005°19'59314.0
2016-Apr-27 20:10N 39°13' W 009°47'1219.3
2016-Apr-27 19:33N 39°02' W 009°45'1919.1
2016-Apr-27 18:33N 38°43' W 009°42'1615.7
2016-Apr-27 17:33N 38°37' W 009°23'1212.1
2016-Apr-27 16:33N 38°42' W 009°09'2 1.5
2016-Apr-27 15:29N 38°43' W 009°07'0 0.0
2016-Apr-27 14:29N 38°43' W 009°07'0 0.0
2016-Apr-27 13:32N 38°43' W 009°07'0 0.0
2016-Apr-27 12:32N 38°43' W 009°07'0 0.0
2016-Apr-27 11:32N 38°43' W 009°07'0 0.0
2016-Apr-27 10:29N 38°43' W 009°07'0 0.0
2016-Apr-27 09:29N 38°43' W 009°07'0 0.0
2016-Apr-27 08:32N 38°43' W 009°07'0 0.0
2016-Apr-27 07:32N 38°43' W 009°07'0 0.0
2016-Apr-27 06:31N 38°43' W 009°07'7 7.4
2016-Apr-27 05:33N 38°41' W 009°16'1616.3
2016-Apr-27 04:33N 38°26' W 009°24'2020.1
2016-Apr-27 03:33N 38°06' W 009°23'2020.1
2016-Apr-27 02:33N 37°45' W 009°23'2020.2
2016-Apr-27 01:33N 37°25' W 009°22'2020.2
2016-Apr-27 00:33N 37°05' W 009°21'2020.3
2016-Apr-26 23:33N 36°46' W 009°11'2020.4
2016-Apr-26 22:33N 36°39' W 008°48'1918.8
2016-Apr-26 21:33N 36°33' W 008°26'1919.1
2016-Apr-26 20:33N 36°26' W 008°03'2019.6
2016-Apr-26 19:33N 36°21' W 007°40'2019.7
2016-Apr-26 18:32N 36°14' W 007°16'8220.0
2016-Apr-26 14:27N 35°58' W 005°37'1719.4
2016-Apr-26 13:33N 36°02' W 005°17'22620.2
2016-Apr-26 02:23N 37°21' W 000°52'1821.1
2016-Apr-26 01:33N 37°33' W 000°36'2020.3
2016-Apr-26 00:33N 37°49' W 000°21'2120.3
2016-Apr-25 23:32N 38°06' W 000°06'2020.4
2016-Apr-25 22:33N 38°23' E 000°08'10320.5
2016-Apr-25 17:33N 39°53' E 001°12'2120.9
2016-Apr-25 16:33N 40°11' E 001°25'2120.9
2016-Apr-25 15:33N 40°30' E 001°38'2120.6
2016-Apr-25 14:33N 40°48' E 001°50'2020.3
2016-Apr-25 13:33N 41°06' E 002°01'153 8.4
2016-Apr-24 19:14N 43°04' E 004°13'3319.3
2016-Apr-24 17:30N 43°03' E 004°59'4314.6
2016-Apr-24 14:33N 43°05' E 005°58'3 2.9
2016-Apr-24 13:31N 43°06' E 005°54'0 0.0
2016-Apr-24 12:31N 43°06' E 005°54'0 0.0
2016-Apr-24 11:31N 43°06' E 005°54'0 0.0
2016-Apr-24 10:31N 43°06' E 005°54'0 0.0
2016-Apr-24 09:31N 43°06' E 005°54'0 0.0
2016-Apr-24 08:31N 43°06' E 005°54'0 0.0
2016-Apr-24 07:31N 43°06' E 005°54'0 0.0
2016-Apr-24 06:31N 43°06' E 005°54'0 0.0
2016-Apr-24 05:31N 43°06' E 005°54'0 0.0
2016-Apr-24 04:29N 43°06' E 005°54'2 1.9
2016-Apr-24 03:34N 43°05' E 005°56'5210.4
2016-Apr-23 22:33N 43°18' E 007°05'1615.9
2016-Apr-23 21:33N 43°28' E 007°22'1616.2
2016-Apr-23 20:33N 43°38' E 007°40'1916.2
2016-Apr-23 19:22N 43°48' E 008°03'3016.4
2016-Apr-23 17:33N 44°11' E 008°29'8 7.8
2016-Apr-23 16:32N 44°19' E 008°31'1 1.1
2016-Apr-23 15:33N 44°19' E 008°29'0 0.0
2016-Apr-23 14:29N 44°19' E 008°29'0 0.0
2016-Apr-23 13:29N 44°19' E 008°29'0 0.0
2016-Apr-23 12:29N 44°19' E 008°29'0 0.0
2016-Apr-23 11:32N 44°19' E 008°29'0 0.0
2016-Apr-23 10:29N 44°19' E 008°29'0 0.0
2016-Apr-23 09:32N 44°19' E 008°29'0 0.0
2016-Apr-23 08:29N 44°19' E 008°29'0 0.0
2016-Apr-23 07:29N 44°19' E 008°29'0 0.0
2016-Apr-23 06:32N 44°19' E 008°29'0 0.0
2016-Apr-23 05:33N 44°19' E 008°29'8 7.6
2016-Apr-23 04:32N 44°13' E 008°37'1818.1
2016-Apr-23 03:33N 43°57' E 008°49'1818.1
2016-Apr-23 02:33N 43°42' E 009°02'1918.5
2016-Apr-23 01:33N 43°26' E 009°14'1918.8
2016-Apr-23 00:33N 43°10' E 009°28'2318.1
2016-Apr-22 23:16N 42°51' E 009°47'1918.4
2016-Apr-22 22:14N 42°40' E 010°09'1318.5
2016-Apr-22 21:31N 42°31' E 010°22'99 5.7
2016-Apr-22 04:14N 41°33' E 012°09'1719.0
2016-Apr-22 03:21N 41°20' E 012°22'1619.9
2016-Apr-22 02:32N 41°06' E 012°34'2320.4
2016-Apr-22 01:25N 40°48' E 012°52'1820.5
2016-Apr-22 00:33N 40°34' E 013°07'2720.3
2016-Apr-21 23:14N 40°14' E 013°30'1420.4
2016-Apr-21 22:33N 40°03' E 013°42'2620.5
2016-Apr-21 21:16N 39°43' E 014°04'7620.3
2016-Apr-21 17:32N 38°46' E 015°07'2020.0
2016-Apr-21 16:33N 38°32' E 015°25'1919.4
2016-Apr-21 15:34N 38°18' E 015°43'1818.4
2016-Apr-21 14:33N 38°01' E 015°34'2019.9
2016-Apr-21 13:34N 37°43' E 015°22'1918.7
2016-Apr-21 12:33N 37°28' E 015°09'12 1.2
2016-Apr-21 02:31N 37°25' E 015°24'1210.0
2016-Apr-21 01:22N 37°23' E 015°38'8 9.8
2016-Apr-21 00:33N 37°21' E 015°48'1110.4
2016-Apr-20 23:31N 37°19' E 016°01'2712.8
2016-Apr-20 21:23N 37°13' E 016°35'  

Dump ship's entire track history